Amiret, Minnesota
Current Conditions -  °F | °C
As of 11:52 PM on Wednesday 17 Dec 2014 (Local Time) from KTKC Reporting Station
Clear Clear  
Wind Chill: -13°   Ceiling: Unl
Heat Index: -13°   Visibility: 10mi
Dew Point: -15°   Wind: 0mph
Humidity: 90%   Direction: NA
Pressure: 30.28"   Gusts: NA
Location:  44.2253°N, 95.6512°W
Report Text: KTKC 180552Z AUTO 00000KT 10SM CLR M13/M15 A3028 RMK AO2 T11331146
Loading
Personal Weather Stations






























Interactive Weather Map New forecast layout! Learn more

10-Day Weather Forecast

Advertisements
Track Severe Weather on mobile